createdAt,value
2022-11-19T00:01:12.605Z,16.30
2022-11-19T00:03:41.440Z,16.00
2022-11-19T00:06:14.248Z,16.80
2022-11-19T00:08:41.272Z,16.80
2022-11-19T00:11:16.992Z,18.03
2022-11-19T00:13:43.963Z,17.17
2022-11-19T00:16:15.104Z,16.92
2022-11-19T00:18:41.862Z,17.50
2022-11-19T00:21:13.373Z,19.42
2022-11-19T00:23:40.413Z,18.98
2022-11-19T00:26:10.756Z,18.40
2022-11-19T00:28:38.365Z,19.23
2022-11-19T00:31:08.349Z,18.83
2022-11-19T00:33:35.684Z,18.67
2022-11-19T00:36:03.839Z,18.45
2022-11-19T00:38:31.902Z,18.42
2022-11-19T00:40:58.715Z,19.08
2022-11-19T00:43:44.015Z,18.08
2022-11-19T00:46:11.050Z,18.70
2022-11-19T00:48:39.168Z,18.33
2022-11-19T00:51:07.109Z,18.98
2022-11-19T00:56:05.892Z,17.30
2022-11-19T00:58:32.814Z,17.80
2022-11-19T01:00:59.841Z,18.40
2022-11-19T01:03:26.930Z,18.27
2022-11-19T01:05:53.842Z,18.63
2022-11-19T01:08:20.672Z,17.10
2022-11-19T01:10:47.314Z,16.85
2022-11-19T01:13:46.271Z,18.50
2022-11-19T01:16:16.420Z,18.40
2022-11-19T01:18:44.471Z,19.17
2022-11-19T01:23:40.471Z,17.70
2022-11-19T01:26:08.158Z,17.50
2022-11-19T01:28:35.950Z,18.83
2022-11-19T01:31:11.165Z,17.42
2022-11-19T01:33:38.546Z,18.00
2022-11-19T01:36:08.471Z,18.65
2022-11-19T01:38:35.262Z,20.38
2022-11-19T01:41:02.382Z,20.77
2022-11-19T01:44:08.242Z,22.00
2022-11-19T01:46:37.900Z,18.75
2022-11-19T01:49:19.149Z,18.73
2022-11-19T01:51:45.934Z,17.75
2022-11-19T01:54:43.185Z,17.55
2022-11-19T01:57:13.170Z,16.75
2022-11-19T01:59:42.060Z,12.05
2022-11-19T02:02:08.722Z,9.95
2022-11-19T02:04:36.317Z,8.65
2022-11-19T02:07:03.153Z,7.07
2022-11-19T02:09:30.435Z,7.55
2022-11-19T02:12:09.087Z,7.50
2022-11-19T02:14:54.803Z,9.02
2022-11-19T02:17:40.490Z,8.93
2022-11-19T02:20:25.932Z,9.02
2022-11-19T02:23:11.239Z,9.68
2022-11-19T02:25:59.597Z,11.73
2022-11-19T02:28:34.874Z,11.13
2022-11-19T02:31:24.144Z,11.45
2022-11-19T02:33:59.520Z,13.18
2022-11-19T02:36:38.294Z,12.13
2022-11-19T02:39:17.266Z,12.88
2022-11-19T02:41:56.578Z,13.93
2022-11-19T02:44:54.644Z,15.95
2022-11-19T02:47:28.111Z,16.05
2022-11-19T02:49:59.704Z,16.38
2022-11-19T02:52:27.649Z,17.85
2022-11-19T02:57:21.311Z,14.93
2022-11-19T03:00:23.606Z,15.02
2022-11-19T03:03:33.532Z,13.80
2022-11-19T03:06:12.607Z,12.98
2022-11-19T03:08:39.615Z,12.73
2022-11-19T03:11:06.352Z,12.67
2022-11-19T03:14:09.692Z,13.38
2022-11-19T03:16:41.502Z,12.27
2022-11-19T03:19:12.968Z,12.80
2022-11-19T03:21:47.322Z,11.98
2022-11-19T03:24:23.894Z,11.30
2022-11-19T03:27:17.874Z,11.75
2022-11-19T03:29:49.395Z,11.77
2022-11-19T03:32:23.770Z,11.27
2022-11-19T03:34:55.294Z,11.00
2022-11-19T03:37:25.263Z,11.35
2022-11-19T03:39:56.034Z,10.32
2022-11-19T03:42:24.685Z,10.68
2022-11-19T03:44:57.005Z,10.35
2022-11-19T03:47:33.185Z,10.18
2022-11-19T03:50:09.279Z,10.73
2022-11-19T03:52:35.966Z,9.95
2022-11-19T03:55:02.951Z,9.80
2022-11-19T03:57:29.856Z,9.32
2022-11-19T03:59:56.620Z,8.68
2022-11-19T04:02:23.330Z,8.65
2022-11-19T04:04:50.053Z,8.05
2022-11-19T04:07:19.794Z,8.85
2022-11-19T04:09:46.689Z,7.65
2022-11-19T04:12:20.326Z,6.82
2022-11-19T04:14:47.568Z,6.93
2022-11-19T04:17:15.662Z,7.18
2022-11-19T04:19:42.423Z,7.55
2022-11-19T04:22:09.645Z,7.50
2022-11-19T04:24:36.792Z,7.40
2022-11-19T04:27:03.518Z,7.20
2022-11-19T04:29:30.238Z,6.47
2022-11-19T04:31:57.002Z,6.35
2022-11-19T04:34:23.631Z,7.20
2022-11-19T04:36:50.326Z,6.00
2022-11-19T04:39:17.341Z,6.78
2022-11-19T04:41:44.163Z,7.10
2022-11-19T04:44:10.868Z,7.22
2022-11-19T04:46:37.598Z,6.32
2022-11-19T04:49:04.626Z,7.05
2022-11-19T04:51:31.562Z,6.77
2022-11-19T04:53:58.430Z,6.27
2022-11-19T04:56:25.143Z,5.97
2022-11-19T04:58:51.844Z,6.03
2022-11-19T05:01:20.537Z,5.10
2022-11-19T05:03:48.369Z,5.22
2022-11-19T05:06:15.021Z,5.35
2022-11-19T05:08:41.839Z,5.30
2022-11-19T05:11:08.666Z,5.47
2022-11-19T05:13:35.329Z,5.63
2022-11-19T05:16:02.121Z,5.28
2022-11-19T05:18:28.879Z,5.40
2022-11-19T05:20:55.576Z,5.68
2022-11-19T05:23:22.473Z,5.57
2022-11-19T05:25:49.159Z,5.68
2022-11-19T05:28:15.889Z,5.10
2022-11-19T05:30:42.565Z,4.80
2022-11-19T05:33:09.348Z,4.85
2022-11-19T05:35:36.115Z,4.85
2022-11-19T05:38:03.337Z,5.00
2022-11-19T05:40:30.387Z,4.93
2022-11-19T05:42:57.112Z,5.40
2022-11-19T05:45:23.692Z,5.97
2022-11-19T05:47:54.777Z,5.70
2022-11-19T05:50:21.646Z,7.45
2022-11-19T05:52:49.976Z,7.53
2022-11-19T05:55:16.935Z,7.75
2022-11-19T05:57:43.584Z,8.80
2022-11-19T06:00:11.522Z,9.52
2022-11-19T06:02:40.954Z,8.52
2022-11-19T06:05:08.070Z,8.50
2022-11-19T06:07:34.820Z,8.47
2022-11-19T06:10:01.646Z,9.65
2022-11-19T06:12:28.237Z,8.63
2022-11-19T06:14:55.711Z,9.00
2022-11-19T06:17:22.322Z,8.73
2022-11-19T06:19:48.906Z,8.18
2022-11-19T06:22:15.598Z,7.88
2022-11-19T06:24:42.167Z,8.65
2022-11-19T06:27:08.786Z,9.30
2022-11-19T06:29:35.825Z,9.65
2022-11-19T06:32:02.439Z,9.47
2022-11-19T06:34:29.409Z,9.73
2022-11-19T06:36:55.974Z,8.65
2022-11-19T06:39:22.911Z,10.13
2022-11-19T06:41:49.694Z,10.02
2022-11-19T06:44:16.440Z,10.13
2022-11-19T06:46:43.065Z,12.40
2022-11-19T06:49:12.225Z,11.82
2022-11-19T06:51:40.924Z,11.25
2022-11-19T06:54:07.629Z,12.55
2022-11-19T06:56:34.219Z,13.07
2022-11-19T06:59:00.904Z,12.70
2022-11-19T07:01:27.571Z,12.23
2022-11-19T07:03:54.177Z,13.77
2022-11-19T07:06:20.850Z,13.18
2022-11-19T07:08:47.460Z,14.13
2022-11-19T07:11:26.053Z,13.65
2022-11-19T07:14:00.245Z,14.27
2022-11-19T07:16:32.479Z,13.82
2022-11-19T07:19:00.417Z,13.70
2022-11-19T07:23:58.607Z,12.48
2022-11-19T07:26:25.691Z,13.27
2022-11-19T07:28:53.031Z,14.27
2022-11-19T07:31:19.619Z,13.70
2022-11-19T07:33:46.273Z,14.20
2022-11-19T07:36:18.132Z,14.02
2022-11-19T07:38:46.222Z,13.50
2022-11-19T07:41:31.379Z,11.85
2022-11-19T07:43:58.061Z,12.55
2022-11-19T07:46:24.642Z,13.98
2022-11-19T07:48:56.358Z,13.52
2022-11-19T07:51:23.717Z,14.85
2022-11-19T07:53:50.484Z,16.25
2022-11-19T07:56:18.171Z,15.95
2022-11-19T07:58:45.062Z,15.52
2022-11-19T08:01:14.848Z,16.85
2022-11-19T08:03:42.816Z,17.10
2022-11-19T08:08:36.588Z,16.05
2022-11-19T08:11:06.165Z,17.08
2022-11-19T08:13:33.920Z,16.60
2022-11-19T08:16:06.003Z,18.55
2022-11-19T08:18:32.651Z,17.50
2022-11-19T08:21:10.461Z,17.23
2022-11-19T08:26:07.392Z,16.80
2022-11-19T08:28:34.286Z,16.85
2022-11-19T08:31:08.776Z,18.35
2022-11-19T08:33:36.312Z,17.63
2022-11-19T08:36:04.059Z,17.23
2022-11-19T08:38:35.779Z,17.65
2022-11-19T08:41:24.303Z,17.00
2022-11-19T08:43:50.988Z,18.25
2022-11-19T08:46:17.594Z,18.25
2022-11-19T08:48:44.242Z,13.02
2022-11-19T08:51:11.123Z,18.40
2022-11-19T08:53:37.845Z,19.25
2022-11-19T08:56:06.382Z,19.95
2022-11-19T08:58:33.350Z,19.52
2022-11-19T09:00:59.943Z,20.10
2022-11-19T09:03:26.553Z,20.55
2022-11-19T09:06:02.053Z,21.00
2022-11-19T09:08:29.096Z,20.33
2022-11-19T09:10:55.705Z,19.85
2022-11-19T09:13:23.483Z,19.83
2022-11-19T09:15:51.273Z,17.77
2022-11-19T09:18:18.810Z,18.65
2022-11-19T09:20:45.487Z,19.58
2022-11-19T09:23:12.122Z,19.00
2022-11-19T09:25:38.714Z,19.63
2022-11-19T09:28:05.644Z,18.92
2022-11-19T09:30:32.942Z,20.27
2022-11-19T09:33:00.167Z,21.35
2022-11-19T09:35:27.915Z,22.45
2022-11-19T09:37:54.488Z,20.52
2022-11-19T09:40:21.883Z,22.23
2022-11-19T09:43:09.303Z,21.08
2022-11-19T09:46:10.305Z,21.17
2022-11-19T09:48:39.223Z,21.88
2022-11-19T09:51:12.720Z,21.38
2022-11-19T09:53:46.912Z,23.85
2022-11-19T09:56:21.213Z,22.75
2022-11-19T09:58:48.316Z,22.20
2022-11-19T10:01:17.417Z,23.10
2022-11-19T10:03:48.927Z,20.80
2022-11-19T10:06:15.547Z,22.38
2022-11-19T10:09:07.026Z,22.50
2022-11-19T10:11:48.668Z,21.05
2022-11-19T10:14:33.640Z,21.70
2022-11-19T10:17:11.397Z,22.75
2022-11-19T10:22:52.887Z,24.42
2022-11-19T10:25:26.427Z,23.25
2022-11-19T10:28:11.030Z,22.20
2022-11-19T10:30:40.832Z,23.02
2022-11-19T10:33:33.919Z,21.58
2022-11-19T10:36:09.704Z,21.75
2022-11-19T10:38:42.054Z,23.30
2022-11-19T10:41:24.644Z,23.50
2022-11-19T10:44:00.200Z,20.85
2022-11-19T10:46:28.736Z,22.23
2022-11-19T10:48:58.515Z,22.77
2022-11-19T10:51:29.747Z,22.55
2022-11-19T10:53:57.349Z,20.60
2022-11-19T10:56:32.728Z,22.63
2022-11-19T10:59:16.392Z,21.50
2022-11-19T11:01:45.478Z,14.57
2022-11-19T11:04:29.800Z,22.02
2022-11-19T11:07:00.819Z,22.33
2022-11-19T11:09:28.310Z,22.10
2022-11-19T11:12:13.707Z,20.80
2022-11-19T11:14:54.473Z,21.00
2022-11-19T11:17:31.742Z,19.60
2022-11-19T11:20:04.907Z,20.00
2022-11-19T11:22:32.534Z,21.23
2022-11-19T11:25:06.795Z,21.33
2022-11-19T11:27:35.454Z,20.25
2022-11-19T11:30:13.904Z,19.83
2022-11-19T11:32:41.630Z,21.17
2022-11-19T11:35:32.035Z,21.88
2022-11-19T11:38:01.511Z,21.42
2022-11-19T11:40:29.063Z,20.40
2022-11-19T11:42:56.237Z,19.45
2022-11-19T11:45:34.269Z,20.98
2022-11-19T11:48:07.371Z,20.55
2022-11-19T11:50:36.970Z,20.08
2022-11-19T11:53:09.477Z,20.90
2022-11-19T11:55:38.488Z,21.25
2022-11-19T11:58:24.090Z,21.35
2022-11-19T12:00:55.317Z,20.80
2022-11-19T12:03:23.129Z,21.73
2022-11-19T12:06:01.804Z,22.70
2022-11-19T12:08:50.068Z,21.73
2022-11-19T12:11:49.397Z,20.75
2022-11-19T12:14:30.306Z,26.38
2022-11-19T12:17:18.488Z,20.67
2022-11-19T12:19:58.026Z,19.48
2022-11-19T12:22:45.782Z,20.60
2022-11-19T12:25:15.404Z,21.30
2022-11-19T12:27:57.031Z,22.50
2022-11-19T12:30:29.180Z,20.08
2022-11-19T12:33:16.850Z,21.10
2022-11-19T12:38:45.484Z,20.23
2022-11-19T12:41:36.908Z,19.33
2022-11-19T12:44:23.448Z,20.73
2022-11-19T12:47:07.951Z,19.73
2022-11-19T12:49:57.361Z,20.38
2022-11-19T12:52:39.183Z,19.33
2022-11-19T12:55:44.407Z,19.35
2022-11-19T12:58:23.498Z,20.25
2022-11-19T13:01:13.228Z,20.48
2022-11-19T13:03:48.739Z,18.88
2022-11-19T13:06:41.749Z,20.17
2022-11-19T13:09:21.395Z,19.83
2022-11-19T13:11:54.388Z,21.05
2022-11-19T13:14:32.235Z,19.75
2022-11-19T13:17:00.588Z,19.02
2022-11-19T13:19:33.809Z,21.02
2022-11-19T13:22:18.873Z,20.35
2022-11-19T13:24:49.838Z,20.08
2022-11-19T13:27:23.220Z,20.40
2022-11-19T13:30:04.482Z,20.10
2022-11-19T13:32:50.435Z,19.08
2022-11-19T13:35:24.059Z,18.58
2022-11-19T13:37:58.657Z,19.58
2022-11-19T13:40:44.298Z,20.17
2022-11-19T13:43:50.414Z,20.02
2022-11-19T13:46:25.380Z,19.05
2022-11-19T13:49:14.988Z,19.05
2022-11-19T13:51:56.687Z,17.55
2022-11-19T13:54:43.785Z,19.88
2022-11-19T13:57:33.742Z,17.48
2022-11-19T14:00:24.784Z,19.02
2022-11-19T14:03:29.005Z,18.13
2022-11-19T14:06:17.312Z,17.52
2022-11-19T14:08:47.038Z,19.23
2022-11-19T14:11:53.204Z,18.08
2022-11-19T14:14:56.979Z,18.80
2022-11-19T14:18:11.224Z,18.63
2022-11-19T14:21:00.668Z,20.27
2022-11-19T14:23:55.139Z,19.00
2022-11-19T14:26:40.122Z,18.40
2022-11-19T14:29:15.896Z,19.27
2022-11-19T14:32:00.936Z,19.20
2022-11-19T14:34:30.570Z,18.20
2022-11-19T14:37:01.046Z,17.25
2022-11-19T14:39:39.603Z,17.80
2022-11-19T14:42:16.724Z,16.30
2022-11-19T14:44:45.186Z,16.40
2022-11-19T14:47:27.445Z,17.17
2022-11-19T14:50:00.297Z,16.60
2022-11-19T14:52:38.356Z,17.38
2022-11-19T14:55:20.712Z,15.68
2022-11-19T14:58:19.147Z,17.58
2022-11-19T15:00:46.385Z,18.08
2022-11-19T15:03:23.987Z,16.40
2022-11-19T15:05:51.256Z,18.77
2022-11-19T15:08:17.889Z,17.52
2022-11-19T15:10:49.074Z,17.17
2022-11-19T15:13:18.519Z,15.90
2022-11-19T15:15:47.897Z,15.57
2022-11-19T15:18:32.919Z,16.75
2022-11-19T15:21:02.121Z,16.55
2022-11-19T15:23:36.993Z,16.67
2022-11-19T15:26:07.500Z,16.92
2022-11-19T15:29:11.509Z,16.17
2022-11-19T15:31:59.126Z,16.80
2022-11-19T15:37:39.167Z,16.33
2022-11-19T15:40:07.879Z,17.55
2022-11-19T15:42:56.929Z,16.92
2022-11-19T15:45:25.743Z,15.88
2022-11-19T15:48:08.647Z,15.05
2022-11-19T15:50:37.253Z,15.38
2022-11-19T15:53:16.305Z,15.93
2022-11-19T15:55:48.572Z,14.93
2022-11-19T15:58:20.371Z,15.18
2022-11-19T16:00:49.810Z,14.60
2022-11-19T16:03:17.906Z,15.40
2022-11-19T16:06:17.792Z,16.40
2022-11-19T16:08:45.994Z,13.85
2022-11-19T16:11:37.591Z,14.10
2022-11-19T16:14:47.037Z,13.02
2022-11-19T16:17:43.548Z,12.73
2022-11-19T16:20:10.758Z,12.27
2022-11-19T16:22:49.041Z,12.13
2022-11-19T16:25:35.687Z,12.48
2022-11-19T16:28:10.584Z,12.77
2022-11-19T16:30:49.069Z,14.07
2022-11-19T16:33:21.603Z,14.73
2022-11-19T16:35:52.896Z,16.17
2022-11-19T16:38:27.522Z,14.10
2022-11-19T16:41:14.116Z,13.70
2022-11-19T16:43:43.737Z,12.95
2022-11-19T16:46:15.062Z,13.38
2022-11-19T16:48:41.698Z,13.02
2022-11-19T16:51:30.150Z,12.38
2022-11-19T16:53:56.857Z,12.10
2022-11-19T16:56:24.316Z,12.75
2022-11-19T16:59:01.349Z,13.30
2022-11-19T17:01:29.771Z,13.13
2022-11-19T17:04:04.741Z,12.50
2022-11-19T17:06:36.800Z,12.68
2022-11-19T17:09:05.660Z,15.05
2022-11-19T17:12:08.557Z,14.40
2022-11-19T17:14:35.099Z,13.70
2022-11-19T17:17:03.438Z,12.60
2022-11-19T17:19:35.709Z,13.68
2022-11-19T17:22:17.620Z,13.15
2022-11-19T17:24:46.024Z,10.93
2022-11-19T17:27:35.088Z,11.75
2022-11-19T17:30:09.645Z,12.65
2022-11-19T17:32:41.623Z,12.63
2022-11-19T17:35:37.059Z,13.10
2022-11-19T17:38:17.665Z,56.78
2022-11-19T17:40:50.274Z,16.92
2022-11-19T17:43:41.948Z,12.93
2022-11-19T17:46:09.475Z,11.90
2022-11-19T17:48:40.237Z,11.93
2022-11-19T17:51:09.782Z,12.40
2022-11-19T17:53:36.358Z,13.80
2022-11-19T17:56:05.230Z,12.43
2022-11-19T17:58:31.799Z,12.73
2022-11-19T18:00:58.413Z,13.90
2022-11-19T18:03:24.983Z,12.32
2022-11-19T18:05:51.820Z,12.73
2022-11-19T18:08:18.489Z,13.65
2022-11-19T18:10:49.350Z,13.68
2022-11-19T18:13:20.696Z,12.55
2022-11-19T18:15:47.372Z,12.60
2022-11-19T18:18:14.204Z,12.68
2022-11-19T18:20:41.669Z,12.38
2022-11-19T18:23:12.580Z,12.68
2022-11-19T18:25:39.961Z,11.82
2022-11-19T18:28:07.603Z,12.00
2022-11-19T18:30:34.751Z,12.88
2022-11-19T18:33:01.356Z,14.70
2022-11-19T18:35:28.175Z,12.52
2022-11-19T18:37:54.763Z,11.00
2022-11-19T18:40:21.546Z,11.30
2022-11-19T18:43:06.565Z,11.43
2022-11-19T18:45:33.952Z,11.70
2022-11-19T18:48:00.518Z,10.05
2022-11-19T18:50:30.157Z,11.35
2022-11-19T18:52:57.059Z,15.77
2022-11-19T18:55:23.736Z,10.82
2022-11-19T18:57:50.288Z,10.82
2022-11-19T19:00:18.068Z,11.23
2022-11-19T19:02:44.691Z,11.60
2022-11-19T19:05:11.538Z,12.23
2022-11-19T19:07:38.226Z,10.20
2022-11-19T19:10:05.604Z,11.15
2022-11-19T19:12:32.250Z,11.25
2022-11-19T19:14:58.970Z,13.60
2022-11-19T19:17:26.301Z,10.98
2022-11-19T19:19:52.948Z,10.27
2022-11-19T19:22:20.588Z,12.60
2022-11-19T19:24:47.307Z,12.20
2022-11-19T19:27:14.963Z,10.82
2022-11-19T19:29:42.071Z,11.85
2022-11-19T19:32:08.912Z,10.60
2022-11-19T19:34:36.329Z,10.95
2022-11-19T19:37:06.079Z,13.25
2022-11-19T19:39:32.755Z,12.65
2022-11-19T19:41:59.405Z,11.55
2022-11-19T19:44:26.022Z,12.30
2022-11-19T19:46:52.646Z,11.73
2022-11-19T19:49:20.140Z,11.18
2022-11-19T19:51:47.294Z,10.38
2022-11-19T19:54:14.023Z,12.10
2022-11-19T19:56:40.767Z,13.55
2022-11-19T19:59:07.490Z,12.07
2022-11-19T20:01:35.996Z,10.15
2022-11-19T20:04:11.046Z,10.82
2022-11-19T20:06:43.575Z,11.30
2022-11-19T20:09:10.403Z,10.07
2022-11-19T20:11:38.198Z,10.80
2022-11-19T20:14:05.606Z,10.90
2022-11-19T20:16:34.093Z,10.48
2022-11-19T20:19:02.066Z,10.43
2022-11-19T20:21:36.099Z,9.50
2022-11-19T20:24:08.748Z,10.55
2022-11-19T20:26:40.384Z,11.20
2022-11-19T20:29:07.041Z,11.20
2022-11-19T20:31:34.642Z,10.15
2022-11-19T20:34:02.854Z,11.45
2022-11-19T20:36:30.934Z,10.77
2022-11-19T20:38:57.806Z,10.80
2022-11-19T20:41:45.648Z,10.48
2022-11-19T20:44:20.701Z,19.13
2022-11-19T20:46:52.767Z,13.02
2022-11-19T20:49:21.794Z,19.17
2022-11-19T20:51:48.829Z,12.05
2022-11-19T20:54:15.621Z,10.88
2022-11-19T20:56:42.656Z,12.40
2022-11-19T20:59:09.915Z,10.37
2022-11-19T21:01:37.648Z,11.57
2022-11-19T21:04:04.858Z,9.63
2022-11-19T21:06:32.695Z,10.18
2022-11-19T21:08:59.419Z,11.02
2022-11-19T21:11:26.706Z,9.63
2022-11-19T21:13:53.512Z,8.98
2022-11-19T21:16:23.221Z,10.68
2022-11-19T21:18:50.448Z,10.05
2022-11-19T21:21:19.639Z,10.90
2022-11-19T21:23:46.885Z,11.25
2022-11-19T21:26:19.898Z,10.70
2022-11-19T21:28:49.390Z,10.38
2022-11-19T21:31:17.453Z,10.23
2022-11-19T21:33:44.621Z,10.20
2022-11-19T21:36:12.497Z,9.85
2022-11-19T21:41:06.724Z,10.65
2022-11-19T21:43:33.635Z,9.70
2022-11-19T21:46:00.242Z,10.15
2022-11-19T21:48:27.204Z,10.23
2022-11-19T21:50:53.913Z,29.33
2022-11-19T21:53:21.133Z,11.05
2022-11-19T21:55:48.318Z,10.50
2022-11-19T21:58:15.672Z,9.95
2022-11-19T22:00:43.915Z,10.73
2022-11-19T22:03:10.756Z,13.35
2022-11-19T22:05:37.471Z,11.18
2022-11-19T22:08:05.248Z,10.65
2022-11-19T22:10:32.762Z,9.35
2022-11-19T22:12:59.596Z,9.13
2022-11-19T22:15:27.131Z,9.57
2022-11-19T22:17:54.194Z,10.73
2022-11-19T22:20:21.091Z,9.37
2022-11-19T22:22:47.767Z,10.43
2022-11-19T22:25:14.706Z,9.70
2022-11-19T22:27:41.697Z,10.57
2022-11-19T22:30:10.239Z,9.85
2022-11-19T22:32:37.206Z,9.93
2022-11-19T22:35:05.696Z,10.90
2022-11-19T22:37:33.356Z,9.95
2022-11-19T22:39:59.969Z,9.45
2022-11-19T22:42:26.715Z,10.00
2022-11-19T22:44:53.402Z,10.20
2022-11-19T22:47:20.108Z,11.18
2022-11-19T22:49:46.748Z,10.15
2022-11-19T22:52:15.583Z,9.52
2022-11-19T22:54:42.181Z,10.30
2022-11-19T22:57:09.650Z,8.73
2022-11-19T22:59:36.410Z,9.93
2022-11-19T23:02:03.398Z,10.38
2022-11-19T23:06:57.700Z,9.75
2022-11-19T23:09:24.444Z,9.50
2022-11-19T23:12:09.696Z,9.90
2022-11-19T23:14:36.341Z,10.73
2022-11-19T23:17:03.012Z,11.88
2022-11-19T23:19:30.674Z,19.25
2022-11-19T23:21:57.587Z,12.60
2022-11-19T23:24:24.295Z,12.13
2022-11-19T23:26:50.976Z,9.73
2022-11-19T23:29:17.811Z,9.85
2022-11-19T23:31:44.538Z,10.63
2022-11-19T23:34:11.866Z,10.88
2022-11-19T23:36:40.157Z,8.77
2022-11-19T23:39:10.264Z,8.75
2022-11-19T23:41:37.104Z,8.77
2022-11-19T23:44:05.188Z,8.60
2022-11-19T23:46:34.057Z,8.73
2022-11-19T23:49:01.828Z,9.15
2022-11-19T23:51:31.136Z,9.15
2022-11-19T23:53:58.076Z,8.40
2022-11-19T23:56:26.041Z,8.27
